createdAt,value
2019-05-05T00:01:49.599Z,99.90
2019-05-05T00:04:29.998Z,99.90
2019-05-05T00:06:59.755Z,99.90
2019-05-05T00:09:30.195Z,99.90
2019-05-05T00:15:15.614Z,99.90
2019-05-05T00:17:45.591Z,99.90
2019-05-05T00:20:15.386Z,99.90
2019-05-05T00:22:45.546Z,99.90
2019-05-05T00:25:15.928Z,99.90
2019-05-05T00:27:45.721Z,99.90
2019-05-05T00:30:15.924Z,99.90
2019-05-05T00:32:46.026Z,99.90
2019-05-05T00:35:15.919Z,99.90
2019-05-05T00:37:45.867Z,99.90
2019-05-05T00:40:16.349Z,99.90
2019-05-05T00:42:46.613Z,99.90
2019-05-05T00:45:16.647Z,99.90
2019-05-05T00:48:08.355Z,99.90
2019-05-05T00:50:38.775Z,99.90
2019-05-05T00:53:08.567Z,99.90
2019-05-05T00:55:38.381Z,99.90
2019-05-05T00:58:09.334Z,99.90
2019-05-05T01:00:58.413Z,99.90
2019-05-05T01:03:29.708Z,99.90
2019-05-05T01:06:27.806Z,99.90
2019-05-05T01:08:57.836Z,99.90
2019-05-05T01:11:27.822Z,99.90
2019-05-05T01:13:58.058Z,99.90
2019-05-05T01:16:28.669Z,99.90
2019-05-05T01:18:58.453Z,99.90
2019-05-05T01:21:29.682Z,99.90
2019-05-05T01:23:59.517Z,99.90
2019-05-05T01:26:29.301Z,99.90
2019-05-05T01:28:59.499Z,99.90
2019-05-05T01:31:29.418Z,99.90
2019-05-05T01:34:24.430Z,99.90
2019-05-05T01:37:01.163Z,99.90
2019-05-05T01:40:02.134Z,99.90
2019-05-05T01:42:32.122Z,99.90
2019-05-05T01:45:01.924Z,99.90
2019-05-05T01:47:31.770Z,99.90
2019-05-05T01:50:15.270Z,99.90
2019-05-05T01:52:34.465Z,99.90
2019-05-05T01:55:05.294Z,99.90
2019-05-05T01:57:35.535Z,99.90
2019-05-05T02:00:05.769Z,99.90
2019-05-05T02:02:35.914Z,99.90
2019-05-05T02:05:07.301Z,99.90
2019-05-05T02:07:37.081Z,99.90
2019-05-05T02:10:07.749Z,99.90
2019-05-05T02:12:37.754Z,99.90
2019-05-05T02:15:07.802Z,99.90
2019-05-05T02:17:37.935Z,99.90
2019-05-05T02:20:07.955Z,99.90
2019-05-05T02:22:37.778Z,99.90
2019-05-05T02:25:07.761Z,99.90
2019-05-05T02:27:37.623Z,99.90
2019-05-05T02:30:20.046Z,99.90
2019-05-05T02:32:55.407Z,99.90
2019-05-05T02:35:25.814Z,99.90
2019-05-05T02:37:56.107Z,99.90
2019-05-05T02:40:26.354Z,99.90
2019-05-05T02:42:57.135Z,99.90
2019-05-05T02:46:14.181Z,99.90
2019-05-05T02:48:45.106Z,99.90
2019-05-05T02:51:16.410Z,99.90
2019-05-05T02:53:49.147Z,99.90
2019-05-05T02:56:24.578Z,99.90
2019-05-05T02:58:57.591Z,99.90
2019-05-05T03:01:37.965Z,99.90
2019-05-05T03:04:09.463Z,99.90
2019-05-05T03:06:44.150Z,99.90
2019-05-05T03:09:16.365Z,99.90
2019-05-05T03:11:49.312Z,99.90
2019-05-05T03:14:23.679Z,99.90
2019-05-05T03:16:54.898Z,99.90
2019-05-05T03:19:26.789Z,99.90
2019-05-05T03:21:56.673Z,99.90
2019-05-05T03:24:26.819Z,99.90
2019-05-05T03:26:57.260Z,99.90
2019-05-05T03:29:37.094Z,99.90
2019-05-05T03:32:11.273Z,99.90
2019-05-05T03:34:38.738Z,99.90
2019-05-05T03:37:10.320Z,99.90
2019-05-05T03:39:44.488Z,99.90
2019-05-05T03:42:24.479Z,99.90
2019-05-05T03:45:07.804Z,99.90
2019-05-05T03:47:38.087Z,99.90
2019-05-05T03:50:08.645Z,99.90
2019-05-05T03:52:39.104Z,99.90
2019-05-05T03:55:09.330Z,99.90
2019-05-05T03:57:40.802Z,99.90
2019-05-05T04:00:14.258Z,99.90
2019-05-05T04:03:08.301Z,99.90
2019-05-05T04:05:48.848Z,99.90
2019-05-05T04:08:19.402Z,99.90
2019-05-05T04:10:50.027Z,99.90
2019-05-05T04:13:20.577Z,99.90
2019-05-05T04:16:09.394Z,99.90
2019-05-05T04:18:46.169Z,99.90
2019-05-05T04:21:15.927Z,99.90
2019-05-05T04:23:46.964Z,99.90
2019-05-05T04:26:17.260Z,99.90
2019-05-05T04:28:47.078Z,99.90
2019-05-05T04:31:16.854Z,99.90
2019-05-05T04:33:46.726Z,99.90
2019-05-05T04:36:16.474Z,99.90
2019-05-05T04:38:46.279Z,99.90
2019-05-05T04:41:16.782Z,99.90
2019-05-05T04:44:05.537Z,99.90
2019-05-05T04:46:35.453Z,99.90
2019-05-05T04:49:27.414Z,99.90
2019-05-05T04:51:58.811Z,99.90
2019-05-05T04:54:34.190Z,99.90
2019-05-05T04:57:04.515Z,99.90
2019-05-05T04:59:34.502Z,99.90
2019-05-05T05:02:09.736Z,99.90
2019-05-05T05:04:55.924Z,99.90
2019-05-05T05:07:25.837Z,99.90
2019-05-05T05:09:55.977Z,99.90
2019-05-05T05:12:44.807Z,99.90
2019-05-05T05:15:15.252Z,99.90
2019-05-05T05:17:53.516Z,99.90
2019-05-05T05:20:24.647Z,99.90
2019-05-05T05:22:54.549Z,99.90
2019-05-05T05:25:24.751Z,99.90
2019-05-05T05:27:54.526Z,99.90
2019-05-05T05:30:24.373Z,99.90
2019-05-05T05:32:54.285Z,99.90
2019-05-05T05:35:24.604Z,99.90
2019-05-05T05:37:57.619Z,99.90
2019-05-05T05:40:35.347Z,99.90
2019-05-05T05:43:06.849Z,99.90
2019-05-05T05:45:57.295Z,99.90
2019-05-05T05:48:47.503Z,99.90
2019-05-05T05:51:20.121Z,99.90
2019-05-05T05:53:54.377Z,99.90
2019-05-05T05:56:24.970Z,99.90
2019-05-05T05:58:57.686Z,99.90
2019-05-05T06:01:29.210Z,99.90
2019-05-05T06:03:58.972Z,99.90
2019-05-05T06:06:28.743Z,99.90
2019-05-05T06:08:58.772Z,99.90
2019-05-05T06:11:29.305Z,99.90
2019-05-05T06:13:59.070Z,99.90
2019-05-05T06:16:29.748Z,99.90
2019-05-05T06:18:59.545Z,99.90
2019-05-05T06:21:29.786Z,99.90
2019-05-05T06:23:59.754Z,99.90
2019-05-05T06:26:30.212Z,99.90
2019-05-05T06:28:59.985Z,99.90
2019-05-05T06:31:29.964Z,99.90
2019-05-05T06:33:59.762Z,99.90
2019-05-05T06:36:29.896Z,99.90
2019-05-05T06:38:59.714Z,99.90
2019-05-05T06:41:36.467Z,99.90
2019-05-05T06:44:14.452Z,99.90
2019-05-05T06:47:04.464Z,99.90
2019-05-05T06:49:34.543Z,99.90
2019-05-05T06:52:04.694Z,99.90
2019-05-05T06:54:54.269Z,99.90
2019-05-05T06:57:24.205Z,99.90
2019-05-05T06:59:54.382Z,99.90
2019-05-05T07:02:24.874Z,99.90
2019-05-05T07:04:54.877Z,99.90
2019-05-05T07:07:24.710Z,99.90
2019-05-05T07:09:54.623Z,99.90
2019-05-05T07:12:28.526Z,99.90
2019-05-05T07:14:58.458Z,99.90
2019-05-05T07:17:47.189Z,99.90
2019-05-05T07:20:17.120Z,99.90
2019-05-05T07:22:58.859Z,99.90
2019-05-05T07:25:18.379Z,99.90
2019-05-05T07:27:48.266Z,99.90
2019-05-05T07:30:18.309Z,99.90
2019-05-05T07:32:48.144Z,99.90
2019-05-05T07:35:27.523Z,99.90
2019-05-05T07:37:57.354Z,99.90
2019-05-05T07:40:27.455Z,99.90
2019-05-05T07:42:57.370Z,99.90
2019-05-05T07:45:27.208Z,99.90
2019-05-05T07:47:57.578Z,99.90
2019-05-05T07:50:32.485Z,99.90
2019-05-05T07:53:11.530Z,99.90
2019-05-05T07:55:31.139Z,99.90
2019-05-05T07:58:20.145Z,99.90
2019-05-05T08:00:49.985Z,99.90
2019-05-05T08:03:23.507Z,99.90
2019-05-05T08:05:54.506Z,99.90
2019-05-05T08:08:25.302Z,99.90
2019-05-05T08:10:55.833Z,99.90
2019-05-05T08:13:28.893Z,99.90
2019-05-05T08:16:00.627Z,99.90
2019-05-05T08:18:39.903Z,99.90
2019-05-05T08:21:09.677Z,99.90
2019-05-05T08:23:48.222Z,99.90
2019-05-05T08:26:27.975Z,99.90
2019-05-05T08:29:20.267Z,99.90
2019-05-05T08:31:54.542Z,99.90
2019-05-05T08:34:24.800Z,99.90
2019-05-05T08:36:59.770Z,99.90
2019-05-05T08:39:29.766Z,99.90
2019-05-05T08:41:59.551Z,99.90
2019-05-05T08:44:29.394Z,99.90
2019-05-05T08:47:00.603Z,99.90
2019-05-05T08:49:30.471Z,99.90
2019-05-05T08:52:00.305Z,99.90
2019-05-05T08:54:30.708Z,99.90
2019-05-05T08:57:00.666Z,99.90
2019-05-05T08:59:33.731Z,99.90
2019-05-05T09:02:04.532Z,99.90
2019-05-05T09:04:34.846Z,99.90
2019-05-05T09:07:05.134Z,99.90
2019-05-05T09:09:35.129Z,99.90
2019-05-05T09:12:04.917Z,99.90
2019-05-05T09:14:34.787Z,99.90
2019-05-05T09:17:04.894Z,99.90
2019-05-05T09:19:34.686Z,99.90
2019-05-05T09:22:08.640Z,99.90
2019-05-05T09:24:53.677Z,99.90
2019-05-05T09:27:45.800Z,99.90
2019-05-05T09:30:16.878Z,99.90
2019-05-05T09:32:46.802Z,99.90
2019-05-05T09:35:16.752Z,99.90
2019-05-05T09:38:05.689Z,99.90
2019-05-05T09:40:38.085Z,99.90
2019-05-05T09:43:09.351Z,99.90
2019-05-05T09:45:39.804Z,99.90
2019-05-05T09:48:09.817Z,99.90
2019-05-05T09:50:39.758Z,99.90
2019-05-05T09:53:09.599Z,99.90
2019-05-05T09:55:39.406Z,99.90
2019-05-05T09:58:28.602Z,99.90
2019-05-05T10:00:58.568Z,99.90
2019-05-05T10:03:28.378Z,99.90
2019-05-05T10:05:58.341Z,99.90
2019-05-05T10:08:28.726Z,99.90
2019-05-05T10:10:58.565Z,99.90
2019-05-05T10:13:28.635Z,99.90
2019-05-05T10:15:58.482Z,99.90
2019-05-05T10:18:47.413Z,99.90
2019-05-05T10:21:17.860Z,99.90
2019-05-05T10:23:50.008Z,99.90
2019-05-05T10:26:20.635Z,99.90
2019-05-05T10:28:50.478Z,99.90
2019-05-05T10:31:20.320Z,99.90
2019-05-05T10:33:54.899Z,99.90
2019-05-05T10:36:24.841Z,99.90
2019-05-05T10:39:24.837Z,99.90
2019-05-05T10:41:56.154Z,99.90
2019-05-05T10:44:26.061Z,99.90
2019-05-05T10:46:56.465Z,99.90
2019-05-05T10:49:26.338Z,99.90
2019-05-05T10:51:56.122Z,99.90
2019-05-05T10:54:40.161Z,99.90
2019-05-05T10:56:57.683Z,99.90
2019-05-05T10:59:27.639Z,99.90
2019-05-05T11:01:57.770Z,99.90
2019-05-05T11:04:28.249Z,99.90
2019-05-05T11:06:58.361Z,99.90
2019-05-05T11:09:47.738Z,99.90
2019-05-05T11:12:17.651Z,99.90
2019-05-05T11:14:48.205Z,99.90
2019-05-05T11:17:19.071Z,99.90
2019-05-05T11:19:50.280Z,99.90
2019-05-05T11:22:20.191Z,99.90
2019-05-05T11:24:59.921Z,99.90
2019-05-05T11:27:23.994Z,99.90
2019-05-05T11:30:11.046Z,99.90
2019-05-05T11:33:17.142Z,99.90
2019-05-05T11:36:08.796Z,99.90
2019-05-05T11:38:41.226Z,99.90
2019-05-05T11:41:10.401Z,99.90
2019-05-05T11:43:41.056Z,99.90
2019-05-05T11:46:11.055Z,99.90
2019-05-05T11:48:40.920Z,99.90
2019-05-05T11:51:10.948Z,99.90
2019-05-05T11:53:40.981Z,99.90
2019-05-05T11:56:11.584Z,99.90
2019-05-05T11:58:41.496Z,99.90
2019-05-05T12:01:13.703Z,99.90
2019-05-05T12:03:44.360Z,99.90
2019-05-05T12:06:15.294Z,99.90
2019-05-05T12:08:45.922Z,99.90
2019-05-05T12:11:18.513Z,99.90
2019-05-05T12:13:48.897Z,99.90
2019-05-05T12:16:50.265Z,99.90
2019-05-05T12:19:20.242Z,99.90
2019-05-05T12:21:50.128Z,99.90
2019-05-05T12:24:25.129Z,99.90
2019-05-05T12:27:14.138Z,99.90
2019-05-05T12:29:54.696Z,99.90
2019-05-05T12:32:44.213Z,99.90
2019-05-05T12:35:15.829Z,99.90
2019-05-05T12:37:45.800Z,99.90
2019-05-05T12:40:15.940Z,99.90
2019-05-05T12:42:47.018Z,99.90
2019-05-05T12:45:24.059Z,99.90
2019-05-05T12:48:13.916Z,99.90
2019-05-05T12:50:44.361Z,99.90
2019-05-05T12:53:14.574Z,99.90
2019-05-05T12:55:44.937Z,99.90
2019-05-05T12:58:14.859Z,99.90
2019-05-05T13:00:49.642Z,99.90
2019-05-05T13:03:40.122Z,99.90
2019-05-05T13:06:10.374Z,99.90
2019-05-05T13:08:40.609Z,99.90
2019-05-05T13:11:12.123Z,99.90
2019-05-05T13:13:43.940Z,99.90
2019-05-05T13:16:13.927Z,99.90
2019-05-05T13:18:43.828Z,99.90
2019-05-05T13:21:34.691Z,99.90
2019-05-05T13:24:26.455Z,99.90
2019-05-05T13:27:12.042Z,99.90
2019-05-05T13:29:44.263Z,99.90
2019-05-05T13:32:14.431Z,99.90
2019-05-05T13:34:44.270Z,99.90
2019-05-05T13:39:50.634Z,99.90
2019-05-05T13:42:20.804Z,99.90
2019-05-05T13:45:15.615Z,99.90
2019-05-05T13:47:45.517Z,99.90
2019-05-05T13:50:19.901Z,99.90
2019-05-05T13:53:08.750Z,99.90
2019-05-05T13:55:38.666Z,99.90
2019-05-05T13:58:09.060Z,99.90
2019-05-05T14:00:38.982Z,99.90
2019-05-05T14:03:09.670Z,99.90
2019-05-05T14:05:39.657Z,99.90
2019-05-05T14:08:09.823Z,99.90
2019-05-05T14:10:39.905Z,99.90
2019-05-05T14:13:29.763Z,99.90
2019-05-05T14:15:59.795Z,96.10
2019-05-05T14:18:30.038Z,97.00
2019-05-05T14:20:59.860Z,97.00
2019-05-05T14:23:31.321Z,97.50
2019-05-05T14:26:01.346Z,99.50
2019-05-05T14:28:31.260Z,98.70
2019-05-05T14:31:13.945Z,99.90
2019-05-05T14:34:04.541Z,99.90
2019-05-05T14:37:11.040Z,99.90
2019-05-05T14:39:40.304Z,99.70
2019-05-05T14:42:10.163Z,99.90
2019-05-05T14:44:41.001Z,99.10
2019-05-05T14:47:10.848Z,97.30
2019-05-05T14:49:41.055Z,99.60
2019-05-05T14:52:13.588Z,99.90
2019-05-05T14:55:03.880Z,99.40
2019-05-05T14:57:34.139Z,99.90
2019-05-05T15:00:04.840Z,99.90
2019-05-05T15:02:35.035Z,99.10
2019-05-05T15:05:24.406Z,99.90
2019-05-05T15:08:16.555Z,99.60
2019-05-05T15:11:03.923Z,99.60
2019-05-05T15:13:54.088Z,98.00
2019-05-05T15:16:24.466Z,97.60
2019-05-05T15:18:54.441Z,98.00
2019-05-05T15:21:24.344Z,96.90
2019-05-05T15:23:55.010Z,98.10
2019-05-05T15:26:24.858Z,96.40
2019-05-05T15:29:01.215Z,96.70
2019-05-05T15:31:26.516Z,95.90
2019-05-05T15:33:56.436Z,96.40
2019-05-05T15:36:26.265Z,97.30
2019-05-05T15:38:56.456Z,96.50
2019-05-05T15:41:26.363Z,94.30
2019-05-05T15:43:56.316Z,93.30
2019-05-05T15:46:26.302Z,93.70
2019-05-05T15:48:57.489Z,93.20
2019-05-05T15:51:27.446Z,93.00
2019-05-05T15:53:57.511Z,92.90
2019-05-05T15:56:27.312Z,93.80
2019-05-05T15:58:57.148Z,93.70
2019-05-05T16:01:27.389Z,93.40
2019-05-05T16:03:57.519Z,92.30
2019-05-05T16:06:27.413Z,93.70
2019-05-05T16:08:57.666Z,93.40
2019-05-05T16:11:27.562Z,92.30
2019-05-05T16:13:57.440Z,92.50
2019-05-05T16:16:50.317Z,91.20
2019-05-05T16:19:56.825Z,92.60
2019-05-05T16:22:51.728Z,93.10
2019-05-05T16:25:21.570Z,91.40
2019-05-05T16:27:51.622Z,88.70
2019-05-05T16:30:23.534Z,90.20
2019-05-05T16:32:55.165Z,85.40
2019-05-05T16:35:25.087Z,83.80
2019-05-05T16:37:55.076Z,85.10
2019-05-05T16:40:25.881Z,86.00
2019-05-05T16:43:16.659Z,83.30
2019-05-05T16:45:46.736Z,84.30
2019-05-05T16:48:16.565Z,91.70
2019-05-05T16:50:46.907Z,93.00
2019-05-05T16:53:41.699Z,94.10
2019-05-05T16:56:13.975Z,95.00
2019-05-05T16:58:45.101Z,95.40
2019-05-05T17:01:16.278Z,96.60
2019-05-05T17:03:46.265Z,97.20
2019-05-05T17:06:16.377Z,96.30
2019-05-05T17:08:46.706Z,93.90
2019-05-05T17:11:17.132Z,94.90
2019-05-05T17:14:23.394Z,96.10
2019-05-05T17:17:18.748Z,96.30
2019-05-05T17:19:53.838Z,98.00
2019-05-05T17:22:30.068Z,97.90
2019-05-05T17:25:02.275Z,98.00
2019-05-05T17:27:45.418Z,98.00
2019-05-05T17:30:05.038Z,97.50
2019-05-05T17:32:54.415Z,97.60
2019-05-05T17:35:24.630Z,97.70
2019-05-05T17:37:56.342Z,98.50
2019-05-05T17:40:35.378Z,97.90
2019-05-05T17:43:34.050Z,98.30
2019-05-05T17:46:11.046Z,98.90
2019-05-05T17:49:14.025Z,99.30
2019-05-05T17:51:54.426Z,99.90
2019-05-05T17:54:44.603Z,99.90
2019-05-05T17:57:14.593Z,99.90
2019-05-05T17:59:44.510Z,99.90
2019-05-05T18:02:14.357Z,99.90
2019-05-05T18:04:45.611Z,99.90
2019-05-05T18:07:34.580Z,99.90
2019-05-05T18:10:27.226Z,99.90
2019-05-05T18:13:25.702Z,99.90
2019-05-05T18:15:58.447Z,99.90
2019-05-05T18:18:28.550Z,99.90
2019-05-05T18:20:58.389Z,99.90
2019-05-05T18:23:28.320Z,99.90
2019-05-05T18:25:58.241Z,99.90
2019-05-05T18:28:28.134Z,99.90
2019-05-05T18:30:58.079Z,99.90
2019-05-05T18:33:28.221Z,99.90
2019-05-05T18:35:58.052Z,99.90
2019-05-05T18:38:33.682Z,99.90
2019-05-05T18:41:08.471Z,99.90
2019-05-05T18:44:00.696Z,99.90
2019-05-05T18:46:30.494Z,99.90
2019-05-05T18:49:00.355Z,99.90
2019-05-05T18:51:31.158Z,99.90
2019-05-05T18:54:01.231Z,99.90
2019-05-05T18:56:31.127Z,99.90
2019-05-05T18:59:04.615Z,99.90
2019-05-05T19:02:01.230Z,99.90
2019-05-05T19:04:42.282Z,99.90
2019-05-05T19:07:16.877Z,99.90
2019-05-05T19:09:53.830Z,99.90
2019-05-05T19:12:18.393Z,99.90
2019-05-05T19:14:48.185Z,99.90
2019-05-05T19:17:18.175Z,99.90
2019-05-05T19:19:54.670Z,99.90
2019-05-05T19:22:23.807Z,99.90
2019-05-05T19:24:54.858Z,99.90
2019-05-05T19:27:25.183Z,99.90
2019-05-05T19:29:55.135Z,99.90
2019-05-05T19:32:24.930Z,99.90
2019-05-05T19:34:54.761Z,99.90
2019-05-05T19:37:27.458Z,99.90
2019-05-05T19:39:57.467Z,99.90
2019-05-05T19:42:27.656Z,99.90
2019-05-05T19:44:57.534Z,99.90
2019-05-05T19:47:27.350Z,99.90
2019-05-05T19:50:30.947Z,99.90
2019-05-05T19:53:00.750Z,99.90
2019-05-05T19:55:30.586Z,99.90
2019-05-05T19:58:19.422Z,99.90
2019-05-05T20:00:49.214Z,99.90
2019-05-05T20:03:19.592Z,99.90
2019-05-05T20:05:49.650Z,99.90
2019-05-05T20:08:19.525Z,99.90
2019-05-05T20:10:49.358Z,99.90
2019-05-05T20:13:19.258Z,99.90
2019-05-05T20:15:58.478Z,99.90
2019-05-05T20:18:29.142Z,99.90
2019-05-05T20:21:03.898Z,99.90
2019-05-05T20:23:30.746Z,99.90
2019-05-05T20:26:00.712Z,99.90
2019-05-05T20:28:30.576Z,99.90
2019-05-05T20:31:00.429Z,99.90
2019-05-05T20:33:40.238Z,99.90
2019-05-05T20:36:14.477Z,99.90
2019-05-05T20:39:05.760Z,99.90
2019-05-05T20:41:35.683Z,99.90
2019-05-05T20:44:05.985Z,99.90
2019-05-05T20:46:37.132Z,99.90
2019-05-05T20:49:06.966Z,99.90
2019-05-05T20:51:36.922Z,99.90
2019-05-05T20:54:06.977Z,99.90
2019-05-05T20:56:36.916Z,99.90
2019-05-05T20:59:07.112Z,99.90
2019-05-05T21:01:37.371Z,99.90
2019-05-05T21:04:26.138Z,99.90
2019-05-05T21:06:56.792Z,99.90
2019-05-05T21:09:27.090Z,99.90
2019-05-05T21:11:56.974Z,99.90
2019-05-05T21:14:34.436Z,99.90
2019-05-05T21:16:58.671Z,99.90
2019-05-05T21:19:31.224Z,99.90
2019-05-05T21:22:21.561Z,99.90
2019-05-05T21:24:51.170Z,99.90
2019-05-05T21:27:21.241Z,99.90
2019-05-05T21:29:51.062Z,99.90
2019-05-05T21:32:21.003Z,99.90
2019-05-05T21:34:51.217Z,99.90
2019-05-05T21:37:40.496Z,99.90
2019-05-05T21:40:10.678Z,99.90
2019-05-05T21:42:40.857Z,99.90
2019-05-05T21:45:10.861Z,99.90
2019-05-05T21:47:40.866Z,99.90
2019-05-05T21:50:14.310Z,99.90
2019-05-05T21:52:49.055Z,99.90
2019-05-05T21:55:52.956Z,99.90
2019-05-05T21:58:25.737Z,99.90
2019-05-05T22:01:15.967Z,99.90
2019-05-05T22:04:05.688Z,99.90
2019-05-05T22:06:35.862Z,99.90
2019-05-05T22:09:07.074Z,99.90
2019-05-05T22:11:37.399Z,99.90
2019-05-05T22:14:07.273Z,99.90
2019-05-05T22:16:37.184Z,99.90
2019-05-05T22:19:10.613Z,99.90
2019-05-05T22:21:47.569Z,99.90
2019-05-05T22:24:21.269Z,99.90
2019-05-05T22:26:51.110Z,99.90
2019-05-05T22:29:21.450Z,99.90
2019-05-05T22:31:52.076Z,99.90
2019-05-05T22:34:23.908Z,99.90
2019-05-05T22:36:53.394Z,99.90
2019-05-05T22:39:24.335Z,99.90
2019-05-05T22:41:54.604Z,99.90
2019-05-05T22:44:24.612Z,99.90
2019-05-05T22:46:54.535Z,99.90
2019-05-05T22:49:24.400Z,99.90
2019-05-05T22:51:54.312Z,99.90
2019-05-05T22:54:24.697Z,99.90
2019-05-05T22:56:54.543Z,99.90
2019-05-05T22:59:43.383Z,99.90
2019-05-05T23:02:33.825Z,99.90
2019-05-05T23:05:24.713Z,99.90
2019-05-05T23:07:54.589Z,99.90
2019-05-05T23:10:24.543Z,99.90
2019-05-05T23:12:54.756Z,99.90
2019-05-05T23:15:25.452Z,99.90
2019-05-05T23:18:03.841Z,99.90
2019-05-05T23:21:02.910Z,99.90
2019-05-05T23:24:09.614Z,99.90
2019-05-05T23:26:40.322Z,99.90
2019-05-05T23:29:15.244Z,99.90
2019-05-05T23:31:45.193Z,99.90
2019-05-05T23:34:14.992Z,99.90
2019-05-05T23:36:45.221Z,99.90
2019-05-05T23:39:34.011Z,99.90
2019-05-05T23:42:04.128Z,99.90
2019-05-05T23:44:34.634Z,99.90
2019-05-05T23:47:04.778Z,99.90
2019-05-05T23:49:34.948Z,99.90
2019-05-05T23:52:04.814Z,99.90
2019-05-05T23:54:34.589Z,99.90
2019-05-05T23:57:04.821Z,99.90
2019-05-05T23:59:34.991Z,99.90
